EGTE/EXT METAR and TAF weather

Enter ICAO airport designator
Station Type Date Time Source
EGTE METAR 2020/09/23 19:20 UTC NOAA

EGTE 231920Z 27008KT 9999 FEW025 11/07 Q1001


Station Type Date Time Source
EGTE Decoded METAR 2020/09/23 19:20 UTC NOAA

Exeter Airport, United Kingdom (EGTE) 50-44N 003-25W
Sep 23, 2020 - 03:20 PM EDT / 2020.09.23 1920 UTC
Wind: from the W (270 degrees) at 9 MPH (8 KT):0
Visibility: greater than 7 mile(s):0
Sky conditions: mostly clear
Temperature: 51 F (11 C)
Dew Point: 44 F (7 C)
Relative Humidity: 76%
Pressure (altimeter): 29.56 in. Hg (1001 hPa)
ob: EGTE 231920Z 27008KT 9999 FEW025 11/07 Q1001
cycle: 19

Station Type Date Time Source
EGTE TAF 2012/04/19 12:15 UTC NOAA

TAF TAF EGTE 191401Z 1912/1924 31016KT 9999 SCT030 SCT035 PROB40
TEMPO 1915/1918 7000 SHRA BKN014

Example: see airport list